Terminal Aerodrome Forecast
Issued by NWS

Home | Current Version | Previous Version | Text Only | Print | Product List | Glossary On
Versions: 1 2 3 4 5 6 7 8 9 10 11 12 13 14 15 16 17 18 19 20 21 22 23 24 25 26 27 28 29 30 31 32 33 34 35 36 37 38 39 40 41 42 43 44 45 46 47 48 49 50
000
FTUS45 KBOU 011005 AAA
TAFAPA
TAF AMD
KAPA 011005Z 0110/0206 VRB04KT 6SM BR SCT020
     FM011100 36005KT 4SM BR VCSH SCT008 OVC012
     FM011600 05004KT P6SM SCT008 BKN018
     FM012000 10006KT P6SM SCT018 BKN030
     FM020200 16006KT P6SM VCSH SCT018 BKN030
      TEMPO 0203/0206 3SM -SN BR OVC018=

USA.gov is the U.S. government's official web portal to all federal, state and local government web resources and services.